Time;durP1;ratioP1;P1;durP2;ratioP2;P2;SDS_P1;SDS_P2;PMS_P1;PMS_P2;Temp;Humidity;BMP_temperature;BMP_pressure;BME280_temperature;BME280_humidity;BME280_pressure;Samples;Min_cycle;Max_cycle;Signal;HPM_P1;HPM_P2
2023/06/13 00:01:22;;;;;;;4.40;3.22;;;18.50;99.90;;;;;;5049946;28;20207;-70
2023/06/13 00:03:49;;;;;;;6.22;3.38;;;18.60;99.90;;;;;;5049660;28;20562;-72
2023/06/13 00:06:17;;;;;;;4.55;3.88;;;18.40;99.90;;;;;;5049986;28;20266;-72
2023/06/13 00:08:47;;;;;;;2.97;2.72;;;18.40;99.90;;;;;;5049599;28;20207;-72
2023/06/13 00:11:14;;;;;;;4.15;3.70;;;18.60;99.90;;;;;;5050686;28;20211;-72
2023/06/13 00:13:41;;;;;;;5.10;3.45;;;18.70;99.90;;;;;;5049613;28;20227;-72
2023/06/13 00:16:09;;;;;;;5.35;3.65;;;18.40;99.90;;;;;;5049989;28;20217;-72
2023/06/13 00:18:37;;;;;;;4.47;3.55;;;18.60;99.90;;;;;;5049781;28;20293;-72
2023/06/13 00:21:06;;;;;;;4.03;2.75;;;18.40;99.90;;;;;;5050666;28;20238;-72
2023/06/13 00:23:33;;;;;;;5.55;3.47;;;18.50;99.90;;;;;;5051948;28;20203;-72
2023/06/13 00:26:01;;;;;;;6.07;4.10;;;18.30;99.90;;;;;;5053541;28;20230;-71
2023/06/13 00:28:28;;;;;;;4.32;3.50;;;18.60;99.90;;;;;;5053430;28;20245;-70
2023/06/13 00:30:55;;;;;;;4.07;3.25;;;18.60;99.90;;;;;;5053835;28;20765;-72
2023/06/13 00:33:27;;;;;;;3.90;3.22;;;18.40;99.90;;;;;;5053990;28;20206;-72
2023/06/13 00:35:54;;;;;;;3.15;2.85;;;18.40;99.90;;;;;;5053490;28;20206;-71
2023/06/13 00:38:22;;;;;;;4.10;3.70;;;18.40;99.90;;;;;;5053312;28;20210;-71
2023/06/13 00:40:50;;;;;;;5.53;3.72;;;18.50;99.90;;;;;;5053142;28;20203;-71
2023/06/13 00:43:18;;;;;;;3.70;3.28;;;18.20;99.90;;;;;;5053522;28;20638;-72
2023/06/13 00:45:46;;;;;;;4.80;3.53;;;18.40;99.90;;;;;;5052804;28;20289;-71
2023/06/13 00:48:14;;;;;;;4.13;3.60;;;18.50;99.90;;;;;;5053751;28;20211;-72
2023/06/13 00:50:43;;;;;;;4.28;3.78;;;18.30;99.90;;;;;;5052744;28;20313;-72
2023/06/13 00:53:18;;;;;;;3.80;3.15;;;18.50;99.90;;;;;;5053166;28;20238;-72
2023/06/13 00:55:45;;;;;;;3.58;3.25;;;18.60;99.90;;;;;;5052958;28;20214;-72
2023/06/13 00:58:13;;;;;;;4.07;3.70;;;18.40;99.90;;;;;;5052977;28;20234;-71
2023/06/13 01:00:43;;;;;;;4.75;3.40;;;18.30;99.90;;;;;;5053151;28;20238;-72
2023/06/13 01:03:15;;;;;;;3.53;3.22;;;18.30;99.90;;;;;;5053077;28;20217;-72
2023/06/13 01:05:42;;;;;;;3.75;3.35;;;18.40;99.90;;;;;;5052539;28;20226;-72
2023/06/13 01:08:11;;;;;;;5.43;4.28;;;18.30;99.90;;;;;;5052877;28;20217;-72
2023/06/13 01:10:41;;;;;;;7.32;4.60;;;18.40;99.90;;;;;;5053065;28;20296;-72
2023/06/13 01:13:14;;;;;;;3.80;3.50;;;18.50;99.90;;;;;;5053029;28;20207;-72
2023/06/13 01:15:55;;;;;;;4.15;3.65;;;18.30;99.90;;;;;;5052473;28;20662;-72
2023/06/13 01:18:24;;;;;;;4.13;3.72;;;18.30;99.90;;;;;;5052574;28;20213;-76
2023/06/13 01:20:56;;;;;;;4.78;3.92;;;18.40;99.90;;;;;;5052274;28;20225;-71
2023/06/13 01:23:31;;;;;;;4.95;4.38;;;18.40;99.90;;;;;;5052846;28;20580;-72
2023/06/13 01:26:04;;;;;;;7.95;5.25;;;18.30;99.90;;;;;;5052163;28;20236;-72
2023/06/13 01:28:35;;;;;;;4.40;3.67;;;18.30;99.90;;;;;;5052971;28;20207;-72
2023/06/13 01:31:03;;;;;;;5.30;3.72;;;18.30;99.90;;;;;;5052712;28;20213;-72
2023/06/13 01:33:31;;;;;;;4.95;3.63;;;18.30;99.90;;;;;;5052481;28;20276;-72
2023/06/13 01:35:58;;;;;;;6.68;3.65;;;18.30;99.90;;;;;;5051947;28;20211;-72
2023/06/13 01:38:25;;;;;;;3.25;2.95;;;18.30;99.90;;;;;;5052611;28;20238;-73
2023/06/13 01:40:52;;;;;;;4.22;3.72;;;18.30;99.90;;;;;;5052095;28;20238;-72
2023/06/13 01:43:19;;;;;;;4.07;3.40;;;18.30;99.90;;;;;;5052383;28;20292;-72
2023/06/13 01:45:49;;;;;;;6.40;4.82;;;18.10;99.90;;;;;;5051711;28;20254;-70
2023/06/13 01:48:22;;;;;;;3.97;3.53;;;18.00;99.90;;;;;;5052636;28;20552;-73
2023/06/13 01:50:58;;;;;;;5.40;3.53;;;18.20;99.90;;;;;;5051325;28;20246;-73
2023/06/13 01:53:31;;;;;;;4.82;3.80;;;18.00;99.90;;;;;;5038814;28;20255;-73
2023/06/13 01:56:01;;;;;;;3.22;2.92;;;18.00;99.90;;;;;;5051760;28;20210;-72
2023/06/13 01:58:33;;;;;;;3.85;3.28;;;18.10;99.90;;;;;;5052315;28;20206;-74
2023/06/13 02:01:04;;;;;;;3.35;3.05;;;17.90;99.90;;;;;;5051690;28;20211;-73
2023/06/13 02:03:32;;;;;;;6.28;3.15;;;18.10;99.90;;;;;;5052285;28;20680;-72
2023/06/13 02:05:59;;;;;;;4.35;4.00;;;17.90;99.90;;;;;;5051448;28;20262;-73
2023/06/13 02:08:26;;;;;;;3.78;3.30;;;17.80;99.90;;;;;;5051805;28;20252;-73
2023/06/13 02:10:54;;;;;;;3.40;3.03;;;17.70;99.90;;;;;;5051645;28;20670;-73
2023/06/13 02:13:20;;;;;;;3.35;3.05;;;17.70;99.90;;;;;;5051531;28;20242;-72
2023/06/13 02:15:47;;;;;;;3.75;3.10;;;17.70;99.90;;;;;;5051446;28;20242;-72
2023/06/13 02:18:16;;;;;;;4.20;3.15;;;17.70;99.90;;;;;;5051651;28;20632;-72
2023/06/13 02:20:43;;;;;;;3.80;3.50;;;17.80;99.90;;;;;;5051408;28;20205;-71
2023/06/13 02:23:10;;;;;;;4.28;3.10;;;17.70;99.90;;;;;;5044437;28;20245;-72
2023/06/13 02:25:37;;;;;;;3.80;3.40;;;17.60;99.90;;;;;;5051421;28;20276;-72
2023/06/13 02:28:04;;;;;;;3.53;2.90;;;17.80;99.90;;;;;;5051759;28;20210;-72
2023/06/13 02:30:31;;;;;;;4.75;3.38;;;17.70;99.90;;;;;;5051853;28;20249;-72
2023/06/13 02:33:01;;;;;;;6.00;3.63;;;17.80;99.90;;;;;;5050901;28;20235;-72
2023/06/13 02:35:29;;;;;;;6.88;3.70;;;17.80;99.90;;;;;;5051460;28;20289;-72
2023/06/13 02:37:56;;;;;;;5.25;3.25;;;17.60;99.90;;;;;;5050917;28;20635;-72
2023/06/13 02:40:24;;;;;;;6.38;4.18;;;17.60;99.90;;;;;;5051181;28;20737;-72
2023/06/13 02:42:52;;;;;;;4.68;3.72;;;17.80;99.90;;;;;;5050988;28;20693;-71
2023/06/13 02:45:19;;;;;;;6.43;3.53;;;17.60;99.90;;;;;;5050675;28;20199;-72
2023/06/13 02:47:46;;;;;;;4.80;4.13;;;17.60;99.90;;;;;;5050551;28;20270;-72
2023/06/13 02:50:13;;;;;;;5.35;4.47;;;17.80;99.90;;;;;;5050632;28;20249;-72
2023/06/13 02:52:41;;;;;;;6.82;4.45;;;17.70;99.90;;;;;;5050964;28;20234;-73
2023/06/13 02:55:10;;;;;;;4.63;3.67;;;17.70;99.90;;;;;;5050891;28;20623;-72
2023/06/13 02:57:38;;;;;;;3.40;2.97;;;17.80;99.90;;;;;;5050934;28;20260;-72
2023/06/13 03:00:08;;;;;;;3.75;3.45;;;17.70;99.90;;;;;;5051310;28;20249;-73
2023/06/13 03:02:37;;;;;;;4.70;3.90;;;17.80;99.90;;;;;;5050681;28;20206;-73
2023/06/13 03:05:05;;;;;;;5.55;4.32;;;17.70;99.90;;;;;;5051447;28;20229;-72
2023/06/13 03:07:32;;;;;;;3.58;3.28;;;17.70;99.90;;;;;;5050716;28;20676;-73
2023/06/13 03:10:01;;;;;;;5.63;4.47;;;17.90;99.90;;;;;;5050795;28;20214;-70
2023/06/13 03:12:28;;;;;;;5.60;3.33;;;17.80;99.90;;;;;;5050685;28;20226;-71
2023/06/13 03:14:55;;;;;;;6.55;3.35;;;17.80;99.90;;;;;;5050415;28;20242;-71
2023/06/13 03:17:22;;;;;;;6.05;3.28;;;17.80;99.90;;;;;;5050122;28;20242;-73
2023/06/13 03:19:50;;;;;;;4.38;3.83;;;17.70;99.90;;;;;;5050356;28;20678;-71
2023/06/13 03:22:17;;;;;;;5.90;4.55;;;17.80;99.90;;;;;;5051014;28;20211;-74
2023/06/13 03:24:46;;;;;;;3.92;3.33;;;17.80;99.90;;;;;;5050355;28;20226;-74
2023/06/13 03:27:14;;;;;;;7.20;3.63;;;17.80;99.90;;;;;;5050466;28;20280;-73
2023/06/13 03:29:42;;;;;;;4.05;3.40;;;17.70;99.90;;;;;;5050041;28;20265;-74
2023/06/13 03:32:10;;;;;;;5.13;3.35;;;17.70;99.90;;;;;;5050317;28;20217;-73
2023/06/13 03:34:38;;;;;;;3.53;3.00;;;17.60;99.90;;;;;;5050087;28;20207;-73
2023/06/13 03:37:06;;;;;;;4.15;3.75;;;17.50;99.90;;;;;;5050549;28;20241;-74
2023/06/13 03:39:33;;;;;;;7.18;3.33;;;17.70;99.90;;;;;;5050808;28;20249;-70
2023/06/13 03:42:00;;;;;;;4.13;3.28;;;17.60;99.90;;;;;;5049938;28;20246;-73
2023/06/13 03:44:28;;;;;;;4.38;3.97;;;17.70;99.90;;;;;;5050273;28;20238;-72
2023/06/13 03:46:55;;;;;;;4.60;3.42;;;17.60;99.90;;;;;;5049803;28;20269;-72
2023/06/13 03:49:23;;;;;;;5.85;3.40;;;17.50;99.90;;;;;;5050391;28;20215;-70
2023/06/13 03:51:49;;;;;;;5.00;4.50;;;17.50;99.90;;;;;;5049744;28;20228;-72
2023/06/13 03:54:17;;;;;;;4.50;3.35;;;17.60;99.90;;;;;;5050280;28;20239;-70
2023/06/13 03:56:44;;;;;;;5.50;3.90;;;17.50;99.90;;;;;;5050343;28;20242;-69
2023/06/13 03:59:10;;;;;;;5.25;3.85;;;17.60;99.90;;;;;;5054630;28;20238;-70
2023/06/13 04:01:41;;;;;;;5.95;3.72;;;17.50;99.90;;;;;;5053940;28;20207;-70
2023/06/13 04:04:08;;;;;;;4.50;3.38;;;17.60;99.90;;;;;;5054751;28;20210;-72
2023/06/13 04:06:37;;;;;;;4.75;4.07;;;17.40;99.90;;;;;;5053971;28;20698;-73
2023/06/13 04:09:05;;;;;;;5.20;3.42;;;17.40;99.90;;;;;;5046882;28;20626;-74
2023/06/13 04:11:32;;;;;;;5.10;4.47;;;17.50;99.90;;;;;;5051587;28;20729;-72
2023/06/13 04:14:00;;;;;;;4.03;3.10;;;17.50;99.90;;;;;;5053309;28;20292;-73
2023/06/13 04:16:26;;;;;;;5.38;3.80;;;17.50;99.90;;;;;;5053825;28;20246;-71
2023/06/13 04:18:55;;;;;;;4.05;3.00;;;17.40;99.90;;;;;;5053354;28;20246;-72
2023/06/13 04:21:24;;;;;;;6.57;3.08;;;17.40;99.90;;;;;;5053732;28;20705;-73
2023/06/13 04:23:52;;;;;;;4.43;2.97;;;17.50;99.90;;;;;;5053099;28;20286;-73
2023/06/13 04:26:20;;;;;;;4.82;3.25;;;17.50;99.90;;;;;;5054038;28;20202;-72
2023/06/13 04:28:47;;;;;;;4.65;3.40;;;17.50;99.90;;;;;;5052524;28;20297;-72
2023/06/13 04:31:16;;;;;;;6.60;2.90;;;17.40;99.90;;;;;;5053354;28;20598;-72
2023/06/13 04:33:44;;;;;;;4.95;3.42;;;17.50;99.90;;;;;;5053391;28;20206;-73
2023/06/13 04:36:13;;;;;;;3.33;3.03;;;17.60;99.90;;;;;;5053171;28;20705;-71
2023/06/13 04:38:43;;;;;;;4.90;3.63;;;17.60;99.90;;;;;;5052948;28;20203;-71
2023/06/13 04:41:11;;;;;;;5.93;3.85;;;17.60;99.90;;;;;;5053206;28;20202;-71
2023/06/13 04:43:38;;;;;;;3.92;3.40;;;17.60;99.90;;;;;;5052971;28;20199;-71
2023/06/13 04:46:05;;;;;;;4.28;3.88;;;17.50;99.90;;;;;;5053368;28;20203;-71
2023/06/13 04:48:32;;;;;;;6.25;4.30;;;17.60;99.90;;;;;;5053278;28;20250;-71
2023/06/13 04:50:59;;;;;;;5.25;3.38;;;17.70;99.90;;;;;;5052660;28;20250;-71
2023/06/13 04:53:29;;;;;;;4.35;3.63;;;17.80;99.90;;;;;;5052709;28;20257;-71
2023/06/13 04:55:57;;;;;;;7.35;4.10;;;17.70;99.90;;;;;;5052995;28;20211;-70
2023/06/13 04:58:24;;;;;;;6.22;4.32;;;17.80;99.90;;;;;;5048998;28;20624;-71
2023/06/13 05:00:51;;;;;;;7.03;5.22;;;17.70;99.90;;;;;;5052245;28;20761;-71
2023/06/13 05:03:19;;;;;;;7.82;4.70;;;17.70;99.90;;;;;;5052525;28;20203;-72
2023/06/13 05:05:47;;;;;;;4.20;3.65;;;17.70;99.90;;;;;;5052546;28;20268;-71
2023/06/13 05:08:19;;;;;;;5.95;5.13;;;17.90;99.90;;;;;;5052229;28;20230;-70
2023/06/13 05:10:47;;;;;;;4.95;4.00;;;17.90;99.90;;;;;;5044040;28;20229;-70
2023/06/13 05:13:15;;;;;;;8.27;4.18;;;17.90;99.90;;;;;;5052571;28;20230;-70
2023/06/13 05:15:44;;;;;;;7.53;4.18;;;17.90;99.90;;;;;;5052135;28;20207;-71
2023/06/13 05:18:12;;;;;;;4.00;3.60;;;17.80;99.90;;;;;;5052363;28;20207;-72
2023/06/13 05:20:39;;;;;;;4.75;4.03;;;17.90;99.90;;;;;;5052005;28;20740;-72
2023/06/13 05:23:07;;;;;;;8.85;3.97;;;17.80;99.90;;;;;;5049854;28;20237;-72
2023/06/13 05:25:34;;;;;;;15.93;6.43;;;17.90;99.90;;;;;;5049951;28;20210;-72
2023/06/13 05:28:02;;;;;;;6.13;4.50;;;17.90;99.90;;;;;;5052039;28;20313;-75
2023/06/13 05:30:30;;;;;;;6.97;4.18;;;17.90;99.90;;;;;;5052241;28;20246;-72
2023/06/13 05:32:57;;;;;;;6.50;5.78;;;18.00;99.90;;;;;;5052053;28;21928;-72
2023/06/13 05:35:24;;;;;;;8.10;7.35;;;18.00;99.90;;;;;;5052844;28;20217;-72
2023/06/13 05:37:51;;;;;;;9.48;6.82;;;18.10;99.90;;;;;;5052076;28;20242;-73
2023/06/13 05:40:18;;;;;;;9.85;6.72;;;18.10;99.90;;;;;;5052621;28;20652;-72
2023/06/13 05:42:45;;;;;;;8.45;4.57;;;18.10;99.90;;;;;;5051588;28;20648;-72
2023/06/13 05:45:14;;;;;;;8.55;4.55;;;18.00;99.90;;;;;;5052162;28;20242;-72
2023/06/13 05:47:40;;;;;;;10.00;5.75;;;18.00;99.90;;;;;;5051884;28;20271;-73
2023/06/13 05:50:08;;;;;;;7.30;5.05;;;18.10;99.90;;;;;;5051150;28;20246;-72
2023/06/13 05:52:35;;;;;;;8.90;5.78;;;18.10;99.90;;;;;;5035099;28;20261;-73
2023/06/13 05:55:04;;;;;;;6.97;4.88;;;18.10;99.90;;;;;;5048863;28;20293;-73
2023/06/13 05:57:39;;;;;;;8.50;5.05;;;18.10;82.50;;;;;;5041037;28;20203;-73
2023/06/13 06:00:08;;;;;;;9.63;5.68;;;18.10;1.00;;;;;;5048804;28;20209;-73
2023/06/13 06:02:37;;;;;;;5.70;5.05;;;18.10;1.00;;;;;;5051376;28;20593;-73
2023/06/13 06:05:04;;;;;;;6.57;4.90;;;18.10;1.00;;;;;;5052212;28;20748;-73
2023/06/13 06:07:31;;;;;;;7.68;5.53;;;18.20;1.00;;;;;;5052127;28;20316;-74
2023/06/13 06:09:58;;;;;;;6.18;5.57;;;18.30;99.90;;;;;;5051442;28;20662;-74
2023/06/13 06:12:25;;;;;;;8.40;5.97;;;18.30;1.00;;;;;;5051201;28;20740;-72
2023/06/13 06:14:52;;;;;;;10.32;5.43;;;18.30;1.00;;;;;;5051691;28;20238;-73
2023/06/13 06:17:20;;;;;;;7.68;5.45;;;18.30;99.90;;;;;;5051571;28;20249;-74
2023/06/13 06:19:49;;;;;;;7.50;5.43;;;18.30;1.00;;;;;;5047703;28;20305;-72
2023/06/13 06:22:16;;;;;;;6.30;5.60;;;18.30;99.90;;;;;;5047960;28;20203;-73
2023/06/13 06:24:43;;;;;;;5.47;4.97;;;18.30;1.00;;;;;;5050728;28;20230;-73
2023/06/13 06:27:11;;;;;;;9.60;4.85;;;18.30;99.90;;;;;;5051493;28;20270;-72
2023/06/13 06:29:38;;;;;;;4.40;4.00;;;18.40;1.00;;;;;;5050800;28;20207;-72
2023/06/13 06:32:06;;;;;;;7.38;6.07;;;18.30;99.90;;;;;;5049244;28;20203;-74
2023/06/13 06:34:33;;;;;;;9.38;4.80;;;18.40;4.40;;;;;;5049781;28;20235;-79
2023/06/13 06:37:03;;;;;;;4.72;4.22;;;18.30;1.00;;;;;;5050945;28;20272;-73
2023/06/13 06:39:30;;;;;;;4.93;3.80;;;18.30;99.90;;;;;;5051337;28;20301;-72
2023/06/13 06:41:57;;;;;;;8.27;4.63;;;18.40;1.00;;;;;;5051073;28;20257;-73
2023/06/13 06:44:25;;;;;;;5.32;4.55;;;18.40;1.00;;;;;;5051419;28;20249;-72
2023/06/13 06:46:51;;;;;;;7.93;3.83;;;18.50;99.90;;;;;;5049674;28;20253;-72
2023/06/13 06:49:19;;;;;;;4.18;3.63;;;18.50;1.00;;;;;;5050043;28;20383;-72
2023/06/13 06:51:46;;;;;;;6.45;4.15;;;18.50;99.90;;;;;;5050389;28;20211;-72
2023/06/13 06:54:14;;;;;;;5.45;4.35;;;18.60;1.00;;;;;;5050805;28;20238;-73
2023/06/13 06:56:41;;;;;;;4.05;3.60;;;18.60;1.00;;;;;;5050012;28;20242;-73
2023/06/13 06:59:08;;;;;;;3.88;3.42;;;18.70;90.40;;;;;;5050583;28;20242;-72
2023/06/13 07:01:35;;;;;;;4.75;2.47;;;18.80;1.00;;;;;;5050861;28;20686;-72
2023/06/13 07:04:03;;;;;;;6.30;2.15;;;18.90;99.90;;;;;;5050785;28;20207;-72
2023/06/13 07:06:30;;;;;;;5.95;3.67;;;19.00;1.00;;;;;;5050280;28;20295;-73
2023/06/13 07:08:57;;;;;;;3.85;1.98;;;19.10;99.90;;;;;;5049763;28;20234;-72
2023/06/13 07:11:26;;;;;;;3.42;2.28;;;19.00;1.00;;;;;;5050646;28;20242;-72
2023/06/13 07:13:53;;;;;;;3.10;2.42;;;18.90;99.90;;;;;;5050440;28;20292;-72
2023/06/13 07:16:19;;;;;;;3.88;2.92;;;18.80;1.00;;;;;;5049957;28;20625;-72
2023/06/13 07:18:46;;;;;;;3.97;2.20;;;18.80;99.90;;;;;;5047819;28;20199;-72
2023/06/13 07:21:13;;;;;;;2.45;2.25;;;18.90;1.00;;;;;;5050521;28;20235;-72
2023/06/13 07:23:40;;;;;;;2.90;2.35;;;19.30;99.90;;;;;;5049406;28;20691;-72
2023/06/13 07:26:07;;;;;;;2.08;1.88;;;19.60;1.00;;;;;;5050608;28;20238;-72
2023/06/13 07:28:35;;;;;;;7.05;2.85;;;19.90;1.00;;;;;;5049705;28;20280;-73
2023/06/13 07:31:02;;;;;;;2.38;2.17;;;19.90;1.00;;;;;;5050338;28;20206;-74
2023/06/13 07:33:29;;;;;;;5.00;2.50;;;19.90;1.00;;;;;;5050050;28;20627;-73
2023/06/13 07:35:57;;;;;;;2.83;2.33;;;20.00;1.00;;;;;;5050125;28;20214;-71
2023/06/13 07:38:24;;;;;;;3.53;2.25;;;20.10;1.00;;;;;;5050010;28;20198;-72
2023/06/13 07:40:51;;;;;;;3.30;1.88;;;20.30;1.00;;;;;;5050542;28;20243;-71
2023/06/13 07:43:18;;;;;;;8.07;2.38;;;20.40;1.00;;;;;;5050326;28;20234;-70
2023/06/13 07:45:47;;;;;;;2.08;1.90;;;20.50;1.00;;;;;;5050014;28;20249;-71
2023/06/13 07:48:15;;;;;;;2.58;1.83;;;20.60;1.00;;;;;;5049962;28;20235;-72
2023/06/13 07:50:42;;;;;;;5.25;1.92;;;20.70;1.00;;;;;;5048784;28;20240;-70
2023/06/13 07:53:10;;;;;;;1.70;1.60;;;20.90;99.90;;;;;;5047289;28;20623;-70
2023/06/13 07:55:37;;;;;;;2.10;1.80;;;20.90;99.90;;;;;;5049710;28;20210;-71
2023/06/13 07:58:04;;;;;;;1.60;1.50;;;21.00;99.90;;;;;;5050111;28;20768;-72
2023/06/13 08:00:31;;;;;;;2.80;1.70;;;21.20;99.90;;;;;;5049741;28;20235;-71
2023/06/13 08:03:00;;;;;;;2.08;1.80;;;21.50;99.90;;;;;;5049992;28;20295;-71
2023/06/13 08:05:27;;;;;;;5.18;2.35;;;22.20;99.90;;;;;;5049917;28;20234;-72
2023/06/13 08:07:54;;;;;;;2.67;1.75;;;22.90;99.90;;;;;;5049696;28;20241;-71
2023/06/13 08:10:21;;;;;;;2.30;2.10;;;23.60;99.90;;;;;;5048855;28;20666;-71
2023/06/13 08:12:48;;;;;;;2.63;1.77;;;23.90;99.90;;;;;;5049557;28;20213;-72
2023/06/13 08:15:15;;;;;;;3.28;2.83;;;23.80;99.90;;;;;;5044277;28;20203;-73
2023/06/13 08:17:42;;;;;;;2.90;2.50;;;23.60;99.90;;;;;;5048807;28;20220;-73
2023/06/13 08:20:11;;;;;;;5.60;3.03;;;23.20;99.90;;;;;;5048873;28;20590;-73
2023/06/13 08:22:39;;;;;;;3.85;3.55;;;22.70;99.90;;;;;;5049176;28;20238;-75
2023/06/13 08:25:08;;;;;;;6.60;6.00;;;22.40;99.90;;;;;;5049551;28;20209;-75
2023/06/13 08:27:36;;;;;;;4.03;3.72;;;22.40;99.90;;;;;;5049628;28;20284;-73
2023/06/13 08:30:04;;;;;;;2.58;2.22;;;22.50;99.90;;;;;;5050010;28;20256;-75
2023/06/13 08:32:32;;;;;;;3.08;2.78;;;22.30;99.90;;;;;;5049384;28;20207;-74
2023/06/13 08:34:59;;;;;;;2.10;2.00;;;22.50;99.90;;;;;;5046979;28;20298;-76
2023/06/13 08:37:28;;;;;;;2.55;2.35;;;22.50;99.90;;;;;;5041365;28;20215;-75
2023/06/13 08:39:55;;;;;;;3.10;2.83;;;22.60;99.90;;;;;;5047006;28;20239;-73
2023/06/13 08:42:22;;;;;;;3.55;3.25;;;22.80;99.90;;;;;;5048527;28;20234;-76
2023/06/13 08:44:49;;;;;;;2.63;2.42;;;23.10;99.90;;;;;;5047590;28;20674;-77
2023/06/13 08:47:18;;;;;;;3.50;3.10;;;23.30;99.90;;;;;;5053509;28;20300;-75
2023/06/13 08:49:48;;;;;;;3.65;3.35;;;23.60;99.90;;;;;;5051174;28;20234;-75
2023/06/13 08:52:18;;;;;;;2.70;2.40;;;24.50;99.90;;;;;;5053064;28;20225;-75
2023/06/13 08:54:50;;;;;;;2.92;2.72;;;27.10;99.90;;;;;;5051093;28;20238;-74
2023/06/13 08:57:17;;;;;;;2.97;2.78;;;30.60;99.90;;;;;;5052075;28;20210;-74
2023/06/13 08:59:46;;;;;;;3.65;2.63;;;29.90;99.90;;;;;;5052078;28;20245;-73
2023/06/13 09:02:19;;;;;;;2.70;2.50;;;27.60;99.90;;;;;;5052685;28;20235;-74
2023/06/13 09:04:47;;;;;;;2.95;2.75;;;29.10;99.90;;;;;;5051139;28;20598;-73
2023/06/13 09:07:16;;;;;;;3.05;2.85;;;31.50;99.90;;;;;;5052828;28;20234;-74
2023/06/13 09:09:44;;;;;;;4.13;3.83;;;32.30;99.90;;;;;;5052512;28;20234;-75
2023/06/13 09:12:13;;;;;;;9.07;5.53;;;29.90;99.90;;;;;;5051800;28;20199;-74
2023/06/13 09:14:40;;;;;;;4.20;3.88;;;28.40;99.90;;;;;;5050616;28;20230;-75
2023/06/13 09:17:07;;;;;;;3.60;3.30;;;28.10;99.90;;;;;;5050856;28;20250;-75
2023/06/13 09:19:35;;;;;;;3.20;3.00;;;27.60;99.90;;;;;;5050965;28;20246;-74
2023/06/13 09:22:02;;;;;;;3.08;2.88;;;26.70;99.90;;;;;;5052006;28;20202;-75
2023/06/13 09:24:32;;;;;;;3.75;3.30;;;25.60;99.90;;;;;;5053007;28;20242;-75
2023/06/13 09:27:02;;;;;;;3.65;3.30;;;25.10;99.90;;;;;;5052160;28;20589;-75
2023/06/13 09:29:34;;;;;;;2.88;2.67;;;25.50;99.90;;;;;;5052659;28;20660;-75
2023/06/13 09:32:02;;;;;;;4.68;3.40;;;25.50;99.90;;;;;;5052485;28;20639;-76
2023/06/13 09:34:29;;;;;;;3.45;3.25;;;25.70;99.90;;;;;;5052133;28;20264;-76
2023/06/13 09:36:57;;;;;;;3.03;2.83;;;26.00;99.90;;;;;;5052139;28;20693;-77
2023/06/13 09:39:27;;;;;;;3.30;3.03;;;27.50;99.90;;;;;;5051792;28;20207;-75
2023/06/13 09:41:55;;;;;;;2.88;2.67;;;30.40;99.90;;;;;;5052360;28;20234;-77
2023/06/13 09:44:24;;;;;;;2.63;2.53;;;34.90;99.90;;;;;;5051006;28;20208;-78
2023/06/13 09:46:53;;;;;;;3.58;2.55;;;37.60;99.90;;;;;;5051643;28;20588;-79
2023/06/13 09:49:20;;;;;;;2.67;2.47;;;33.80;99.90;;;;;;5051728;28;20283;-80
2023/06/13 09:51:47;;;;;;;2.92;2.75;;;34.50;99.90;;;;;;5051852;28;20308;-78
2023/06/13 09:54:15;;;;;;;2.42;2.22;;;39.10;99.90;;;;;;5051638;28;20237;-79
2023/06/13 09:56:43;;;;;;;3.78;2.50;;;34.80;99.90;;;;;;5050785;28;20212;-78
2023/06/13 09:59:17;;;;;;;2.70;2.47;;;30.70;99.90;;;;;;5051698;28;20216;-77
2023/06/13 10:01:47;;;;;;;3.22;3.03;;;33.20;99.90;;;;;;5051356;28;20202;-77
2023/06/13 10:04:15;;;;;;;2.97;2.78;;;34.70;99.90;;;;;;5048274;28;20673;-77
2023/06/13 10:06:42;;;;;;;2.47;2.35;;;30.50;99.90;;;;;;5051708;28;20230;-76
2023/06/13 10:09:10;;;;;;;2.83;2.63;;;35.60;99.90;;;;;;5050772;28;20751;-77
2023/06/13 10:11:40;;;;;;;3.00;2.10;;;39.10;99.90;;;;;;5042115;28;20210;-76
2023/06/13 10:14:11;;;;;;;2.78;2.45;;;39.00;99.90;;;;;;5051221;28;20233;-76
2023/06/13 10:16:44;;;;;;;2.53;2.33;;;42.00;99.90;;;;;;5047973;28;20222;-76
2023/06/13 10:19:16;;;;;;;2.53;2.33;;;37.50;99.90;;;;;;5051122;28;20198;-76
2023/06/13 10:21:45;;;;;;;2.55;2.35;;;32.30;99.90;;;;;;5047316;28;20247;-74
2023/06/13 10:24:13;;;;;;;2.97;2.67;;;29.30;99.90;;;;;;5049445;28;20237;-74
2023/06/13 10:26:41;;;;;;;2.63;2.30;;;29.40;99.90;;;;;;5047655;28;20657;-74
2023/06/13 10:29:33;;;;;;;2.70;2.50;;;34.30;99.90;;;;;;5048226;28;20261;-73
2023/06/13 10:32:21;;;;;;;2.53;2.33;;;38.00;99.90;;;;;;5049900;28;20202;-73
2023/06/13 10:35:30;;;;;;;2.05;1.95;;;33.60;99.90;;;;;;5046296;28;20245;-74
2023/06/13 10:38:21;;;;;;;3.30;2.40;;;29.90;99.90;;;;;;5043800;28;20201;-72
2023/06/13 10:41:18;;;;;;;2.35;2.15;;;28.80;99.90;;;;;;5043207;28;20232;-71
2023/06/13 10:43:52;;;;;;;3.72;1.75;;;27.90;99.90;;;;;;5040582;28;20287;-72
2023/06/13 10:46:19;;;;;;;2.53;2.33;;;26.30;99.90;;;;;;5050765;28;20202;-73
2023/06/13 10:48:49;;;;;;;4.32;2.15;;;25.70;99.90;;;;;;5048550;28;20265;-72
2023/06/13 10:51:20;;;;;;;2.58;2.38;;;25.30;99.90;;;;;;5047437;28;20214;-72
2023/06/13 10:53:57;;;;;;;3.40;3.15;;;25.00;99.90;;;;;;5040599;28;20211;-72
2023/06/13 10:56:30;;;;;;;2.42;2.22;;;24.80;99.90;;;;;;5042918;28;20242;-71
2023/06/13 10:59:03;;;;;;;1.95;1.85;;;24.70;99.90;;;;;;5049234;28;21031;-72
2023/06/13 11:01:31;;;;;;;1.92;1.80;;;24.70;99.90;;;;;;5042390;28;20206;-73
2023/06/13 11:04:10;;;;;;;2.58;2.47;;;24.60;99.90;;;;;;5049770;28;20235;-73
2023/06/13 11:06:38;;;;;;;3.03;2.80;;;24.50;99.90;;;;;;5049770;28;20297;-72
2023/06/13 11:09:27;;;;;;;2.95;2.75;;;24.40;99.90;;;;;;5050234;28;20262;-73
2023/06/13 11:11:55;;;;;;;2.17;2.08;;;24.20;99.90;;;;;;5040959;28;20238;-72
2023/06/13 11:14:24;;;;;;;2.42;2.22;;;24.00;99.90;;;;;;5048823;28;20199;-74
2023/06/13 11:16:51;;;;;;;2.63;2.42;;;23.60;99.90;;;;;;5049130;28;20235;-72
2023/06/13 11:19:21;;;;;;;2.70;2.50;;;23.70;99.90;;;;;;5050744;28;20242;-72
2023/06/13 11:21:52;;;;;;;2.75;2.20;;;23.80;99.90;;;;;;5048697;28;20298;-71
2023/06/13 11:24:20;;;;;;;3.30;2.65;;;23.80;99.90;;;;;;5045734;28;20234;-72
2023/06/13 11:26:48;;;;;;;1.95;1.85;;;23.90;99.90;;;;;;5043618;28;20238;-72
2023/06/13 11:29:15;;;;;;;2.60;2.40;;;23.90;99.90;;;;;;5047939;28;20337;-71
2023/06/13 11:31:43;;;;;;;2.38;2.17;;;24.10;99.90;;;;;;5049322;28;20199;-72
2023/06/13 11:34:17;;;;;;;2.85;2.67;;;24.10;99.90;;;;;;5050424;28;20202;-73
2023/06/13 11:36:46;;;;;;;4.10;2.20;;;24.40;99.90;;;;;;5049730;28;20583;-73
2023/06/13 11:39:16;;;;;;;2.47;2.28;;;24.70;99.90;;;;;;5048321;28;20210;-71
2023/06/13 11:41:44;;;;;;;2.15;2.05;;;24.50;99.90;;;;;;5048290;28;20235;-71
2023/06/13 11:44:14;;;;;;;3.38;2.40;;;24.10;99.90;;;;;;5049605;28;20257;-73
2023/06/13 11:46:44;;;;;;;2.40;2.17;;;24.00;99.90;;;;;;5047351;28;20234;-70
2023/06/13 11:49:14;;;;;;;4.28;2.22;;;24.00;99.90;;;;;;5049401;28;20272;-74
2023/06/13 11:51:42;;;;;;;3.05;2.35;;;24.20;99.90;;;;;;5048762;28;20690;-74
2023/06/13 11:54:10;;;;;;;2.58;2.40;;;24.50;99.90;;;;;;5049286;28;20221;-74
2023/06/13 11:56:40;;;;;;;2.90;2.70;;;25.30;99.90;;;;;;5043883;28;20238;-75
2023/06/13 11:59:17;;;;;;;2.15;1.95;;;25.90;99.90;;;;;;5042777;28;20210;-74
2023/06/13 12:01:47;;;;;;;1.90;1.80;;;25.80;99.90;;;;;;5046263;28;20198;-75
2023/06/13 12:04:15;;;;;;;2.42;2.15;;;25.30;99.90;;;;;;5049097;28;20242;-74
2023/06/13 12:06:42;;;;;;;2.40;2.20;;;24.80;99.90;;;;;;5049815;28;20214;-76
2023/06/13 12:09:10;;;;;;;3.00;2.05;;;24.40;99.90;;;;;;5049291;28;20223;-75
2023/06/13 12:11:37;;;;;;;2.17;2.08;;;24.40;99.90;;;;;;5047741;28;20231;-75
2023/06/13 12:14:04;;;;;;;2.30;2.03;;;24.30;99.90;;;;;;5047396;28;20651;-74
2023/06/13 12:16:36;;;;;;;2.30;1.92;;;24.40;99.90;;;;;;5048650;28;20202;-74
2023/06/13 12:19:04;;;;;;;2.67;2.47;;;24.50;99.90;;;;;;5050833;28;20288;-73
2023/06/13 12:21:32;;;;;;;3.70;2.38;;;24.70;99.90;;;;;;5052119;28;20230;-74
2023/06/13 12:24:01;;;;;;;2.35;2.25;;;25.00;99.90;;;;;;5050445;28;20235;-73
2023/06/13 12:26:31;;;;;;;2.78;2.40;;;25.50;99.90;;;;;;5052085;28;20238;-72
2023/06/13 12:28:59;;;;;;;2.58;2.38;;;25.70;99.90;;;;;;5051515;28;20633;-76
2023/06/13 12:31:34;;;;;;;4.00;2.65;;;26.00;99.90;;;;;;5052825;28;20203;-74
2023/06/13 12:34:13;;;;;;;4.63;3.15;;;25.90;99.90;;;;;;5053457;28;20255;-74
2023/06/13 12:36:42;;;;;;;2.65;2.45;;;25.70;99.90;;;;;;5052376;28;20207;-74
2023/06/13 12:39:11;;;;;;;3.05;2.40;;;25.90;99.90;;;;;;5050937;28;20207;-73
2023/06/13 12:41:40;;;;;;;1.95;1.83;;;25.60;99.90;;;;;;5047616;28;20207;-73
2023/06/13 12:44:09;;;;;;;2.55;2.13;;;25.10;99.90;;;;;;5049196;28;20205;-73
2023/06/13 12:46:39;;;;;;;2.53;2.13;;;24.60;99.90;;;;;;5052608;28;20203;-73
2023/06/13 12:49:10;;;;;;;2.38;1.70;;;24.60;99.90;;;;;;5052495;28;20231;-73
2023/06/13 12:51:44;;;;;;;2.53;2.33;;;25.20;99.90;;;;;;5043440;28;20600;-74
2023/06/13 12:54:12;;;;;;;2.55;1.88;;;25.60;99.90;;;;;;5051148;28;20238;-73
2023/06/13 12:56:50;;;;;;;3.17;2.50;;;24.80;99.90;;;;;;5050652;28;20199;-72